sensor_id;sensor_type;location;lat;lon;timestamp;P1;durP1;ratioP1;P2;durP2;ratioP2
24557;SDS011;12726;49.148;8.582;2023-06-19T00:02:02;13.20;;;6.68;;
24557;SDS011;12726;49.148;8.582;2023-06-19T00:04:48;10.10;;;6.72;;
24557;SDS011;12726;49.148;8.582;2023-06-19T00:07:33;11.93;;;6.72;;
24557;SDS011;12726;49.148;8.582;2023-06-19T00:10:19;8.48;;;6.68;;
24557;SDS011;12726;49.148;8.582;2023-06-19T00:13:04;8.80;;;6.60;;
24557;SDS011;12726;49.148;8.582;2023-06-19T00:15:50;8.77;;;7.30;;
24557;SDS011;12726;49.148;8.582;2023-06-19T00:18:36;8.23;;;7.32;;
24557;SDS011;12726;49.148;8.582;2023-06-19T00:21:23;8.85;;;6.95;;
24557;SDS011;12726;49.148;8.582;2023-06-19T00:24:09;8.60;;;6.15;;
24557;SDS011;12726;49.148;8.582;2023-06-19T00:26:54;6.95;;;6.05;;
24557;SDS011;12726;49.148;8.582;2023-06-19T00:29:40;7.88;;;6.95;;
24557;SDS011;12726;49.148;8.582;2023-06-19T00:32:26;10.20;;;7.45;;
24557;SDS011;12726;49.148;8.582;2023-06-19T00:35:12;7.97;;;6.75;;
24557;SDS011;12726;49.148;8.582;2023-06-19T00:37:58;7.68;;;5.82;;
24557;SDS011;12726;49.148;8.582;2023-06-19T00:40:44;8.10;;;6.18;;
24557;SDS011;12726;49.148;8.582;2023-06-19T00:43:29;6.72;;;5.60;;
24557;SDS011;12726;49.148;8.582;2023-06-19T00:46:15;8.27;;;5.63;;
24557;SDS011;12726;49.148;8.582;2023-06-19T00:49:01;8.70;;;5.78;;
24557;SDS011;12726;49.148;8.582;2023-06-19T00:51:47;7.03;;;5.50;;
24557;SDS011;12726;49.148;8.582;2023-06-19T00:54:32;7.13;;;6.18;;
24557;SDS011;12726;49.148;8.582;2023-06-19T00:57:18;9.20;;;5.97;;
24557;SDS011;12726;49.148;8.582;2023-06-19T01:00:04;8.85;;;6.00;;
24557;SDS011;12726;49.148;8.582;2023-06-19T01:02:50;7.18;;;6.00;;
24557;SDS011;12726;49.148;8.582;2023-06-19T01:05:37;9.55;;;5.63;;
24557;SDS011;12726;49.148;8.582;2023-06-19T01:08:29;9.80;;;5.28;;
24557;SDS011;12726;49.148;8.582;2023-06-19T01:11:28;9.25;;;6.10;;
24557;SDS011;12726;49.148;8.582;2023-06-19T01:14:18;5.80;;;4.68;;
24557;SDS011;12726;49.148;8.582;2023-06-19T01:17:06;8.55;;;4.30;;
24557;SDS011;12726;49.148;8.582;2023-06-19T01:19:51;6.03;;;3.83;;
24557;SDS011;12726;49.148;8.582;2023-06-19T01:22:38;6.03;;;3.75;;
24557;SDS011;12726;49.148;8.582;2023-06-19T01:25:23;4.15;;;3.67;;
24557;SDS011;12726;49.148;8.582;2023-06-19T01:28:09;5.68;;;4.00;;
24557;SDS011;12726;49.148;8.582;2023-06-19T01:30:56;4.43;;;3.92;;
24557;SDS011;12726;49.148;8.582;2023-06-19T01:33:47;7.60;;;4.03;;
24557;SDS011;12726;49.148;8.582;2023-06-19T01:36:34;4.10;;;3.30;;
24557;SDS011;12726;49.148;8.582;2023-06-19T01:39:21;8.02;;;2.58;;
24557;SDS011;12726;49.148;8.582;2023-06-19T01:42:07;5.70;;;2.78;;
24557;SDS011;12726;49.148;8.582;2023-06-19T01:44:55;4.18;;;2.50;;
24557;SDS011;12726;49.148;8.582;2023-06-19T01:47:40;5.20;;;2.70;;
24557;SDS011;12726;49.148;8.582;2023-06-19T01:50:26;5.38;;;2.40;;
24557;SDS011;12726;49.148;8.582;2023-06-19T01:53:11;5.85;;;2.53;;
24557;SDS011;12726;49.148;8.582;2023-06-19T01:55:58;4.13;;;2.42;;
24557;SDS011;12726;49.148;8.582;2023-06-19T01:58:44;2.88;;;2.17;;
24557;SDS011;12726;49.148;8.582;2023-06-19T02:01:29;2.15;;;1.95;;
24557;SDS011;12726;49.148;8.582;2023-06-19T02:04:15;5.28;;;2.10;;
24557;SDS011;12726;49.148;8.582;2023-06-19T02:07:00;6.57;;;2.33;;
24557;SDS011;12726;49.148;8.582;2023-06-19T02:09:45;5.10;;;2.65;;
24557;SDS011;12726;49.148;8.582;2023-06-19T02:12:32;4.50;;;2.33;;
24557;SDS011;12726;49.148;8.582;2023-06-19T02:15:18;5.32;;;2.45;;
24557;SDS011;12726;49.148;8.582;2023-06-19T02:18:03;3.45;;;2.33;;
24557;SDS011;12726;49.148;8.582;2023-06-19T02:20:49;3.92;;;2.55;;
24557;SDS011;12726;49.148;8.582;2023-06-19T02:23:34;3.33;;;2.08;;
24557;SDS011;12726;49.148;8.582;2023-06-19T02:26:20;5.65;;;2.40;;
24557;SDS011;12726;49.148;8.582;2023-06-19T02:29:07;4.20;;;2.55;;
24557;SDS011;12726;49.148;8.582;2023-06-19T02:31:53;3.38;;;2.70;;
24557;SDS011;12726;49.148;8.582;2023-06-19T02:34:38;3.60;;;2.50;;
24557;SDS011;12726;49.148;8.582;2023-06-19T02:37:23;4.72;;;2.65;;
24557;SDS011;12726;49.148;8.582;2023-06-19T02:40:09;6.18;;;2.80;;
24557;SDS011;12726;49.148;8.582;2023-06-19T02:42:55;5.20;;;2.67;;
24557;SDS011;12726;49.148;8.582;2023-06-19T02:45:41;3.63;;;2.55;;
24557;SDS011;12726;49.148;8.582;2023-06-19T02:48:27;4.75;;;2.58;;
24557;SDS011;12726;49.148;8.582;2023-06-19T02:51:12;4.35;;;2.70;;
24557;SDS011;12726;49.148;8.582;2023-06-19T02:53:58;5.30;;;2.88;;
24557;SDS011;12726;49.148;8.582;2023-06-19T02:56:43;4.43;;;2.90;;
24557;SDS011;12726;49.148;8.582;2023-06-19T02:59:29;4.10;;;2.90;;
24557;SDS011;12726;49.148;8.582;2023-06-19T03:02:15;3.15;;;2.75;;
24557;SDS011;12726;49.148;8.582;2023-06-19T03:05:01;4.80;;;2.63;;
24557;SDS011;12726;49.148;8.582;2023-06-19T03:07:47;3.38;;;2.95;;
24557;SDS011;12726;49.148;8.582;2023-06-19T03:10:32;4.00;;;2.92;;
24557;SDS011;12726;49.148;8.582;2023-06-19T03:13:17;5.40;;;2.72;;
24557;SDS011;12726;49.148;8.582;2023-06-19T03:16:03;2.70;;;2.45;;
24557;SDS011;12726;49.148;8.582;2023-06-19T03:18:50;2.75;;;2.40;;
24557;SDS011;12726;49.148;8.582;2023-06-19T03:21:35;5.90;;;3.13;;
24557;SDS011;12726;49.148;8.582;2023-06-19T03:24:21;5.55;;;3.47;;
24557;SDS011;12726;49.148;8.582;2023-06-19T03:27:06;3.55;;;2.88;;
24557;SDS011;12726;49.148;8.582;2023-06-19T03:29:52;3.38;;;2.75;;
24557;SDS011;12726;49.148;8.582;2023-06-19T03:32:38;4.97;;;3.20;;
24557;SDS011;12726;49.148;8.582;2023-06-19T03:35:24;3.13;;;2.72;;
24557;SDS011;12726;49.148;8.582;2023-06-19T03:38:10;3.40;;;3.10;;
24557;SDS011;12726;49.148;8.582;2023-06-19T03:40:55;4.47;;;3.20;;
24557;SDS011;12726;49.148;8.582;2023-06-19T03:43:40;3.65;;;2.92;;
24557;SDS011;12726;49.148;8.582;2023-06-19T03:46:25;5.72;;;3.53;;
24557;SDS011;12726;49.148;8.582;2023-06-19T03:49:11;4.20;;;3.13;;
24557;SDS011;12726;49.148;8.582;2023-06-19T03:51:57;3.60;;;3.08;;
24557;SDS011;12726;49.148;8.582;2023-06-19T03:54:43;4.28;;;2.97;;
24557;SDS011;12726;49.148;8.582;2023-06-19T03:57:28;4.15;;;2.90;;
24557;SDS011;12726;49.148;8.582;2023-06-19T04:00:14;4.80;;;3.13;;
24557;SDS011;12726;49.148;8.582;2023-06-19T04:03:01;3.25;;;2.88;;
24557;SDS011;12726;49.148;8.582;2023-06-19T04:05:47;4.65;;;3.10;;
24557;SDS011;12726;49.148;8.582;2023-06-19T04:08:34;4.47;;;3.10;;
24557;SDS011;12726;49.148;8.582;2023-06-19T04:11:19;3.28;;;2.75;;
24557;SDS011;12726;49.148;8.582;2023-06-19T04:14:05;4.68;;;2.78;;
24557;SDS011;12726;49.148;8.582;2023-06-19T04:16:50;3.90;;;3.20;;
24557;SDS011;12726;49.148;8.582;2023-06-19T04:19:36;3.95;;;2.92;;
24557;SDS011;12726;49.148;8.582;2023-06-19T04:22:21;3.00;;;2.58;;
24557;SDS011;12726;49.148;8.582;2023-06-19T04:25:08;3.42;;;2.83;;
24557;SDS011;12726;49.148;8.582;2023-06-19T04:27:54;6.22;;;3.22;;
24557;SDS011;12726;49.148;8.582;2023-06-19T04:30:40;4.05;;;2.88;;
24557;SDS011;12726;49.148;8.582;2023-06-19T04:33:25;3.72;;;3.28;;
24557;SDS011;12726;49.148;8.582;2023-06-19T04:36:11;3.90;;;2.97;;
24557;SDS011;12726;49.148;8.582;2023-06-19T04:38:56;5.28;;;3.10;;
24557;SDS011;12726;49.148;8.582;2023-06-19T04:41:43;4.00;;;2.53;;
24557;SDS011;12726;49.148;8.582;2023-06-19T04:44:29;5.03;;;3.00;;
24557;SDS011;12726;49.148;8.582;2023-06-19T04:47:17;4.88;;;2.85;;
24557;SDS011;12726;49.148;8.582;2023-06-19T04:50:05;4.53;;;2.83;;
24557;SDS011;12726;49.148;8.582;2023-06-19T04:52:52;6.47;;;3.38;;
24557;SDS011;12726;49.148;8.582;2023-06-19T04:55:37;3.30;;;2.95;;
24557;SDS011;12726;49.148;8.582;2023-06-19T04:58:24;4.38;;;3.03;;
24557;SDS011;12726;49.148;8.582;2023-06-19T05:01:09;6.28;;;3.13;;
24557;SDS011;12726;49.148;8.582;2023-06-19T05:03:54;3.10;;;2.80;;
24557;SDS011;12726;49.148;8.582;2023-06-19T05:06:40;4.38;;;3.10;;
24557;SDS011;12726;49.148;8.582;2023-06-19T05:09:26;3.30;;;2.97;;
24557;SDS011;12726;49.148;8.582;2023-06-19T05:12:12;4.03;;;2.80;;
24557;SDS011;12726;49.148;8.582;2023-06-19T05:14:59;3.78;;;3.08;;
24557;SDS011;12726;49.148;8.582;2023-06-19T05:17:44;3.42;;;2.80;;
24557;SDS011;12726;49.148;8.582;2023-06-19T05:20:29;5.57;;;3.30;;
24557;SDS011;12726;49.148;8.582;2023-06-19T05:23:15;3.88;;;3.00;;
24557;SDS011;12726;49.148;8.582;2023-06-19T05:26:00;3.80;;;2.78;;
24557;SDS011;12726;49.148;8.582;2023-06-19T05:28:45;3.15;;;2.40;;
24557;SDS011;12726;49.148;8.582;2023-06-19T05:31:32;3.92;;;3.05;;
24557;SDS011;12726;49.148;8.582;2023-06-19T05:34:17;3.92;;;3.00;;
24557;SDS011;12726;49.148;8.582;2023-06-19T05:37:03;3.58;;;2.85;;
24557;SDS011;12726;49.148;8.582;2023-06-19T05:39:49;4.88;;;3.03;;
24557;SDS011;12726;49.148;8.582;2023-06-19T05:42:34;5.68;;;3.05;;
24557;SDS011;12726;49.148;8.582;2023-06-19T05:45:20;9.52;;;4.80;;
24557;SDS011;12726;49.148;8.582;2023-06-19T05:48:07;3.78;;;3.25;;
24557;SDS011;12726;49.148;8.582;2023-06-19T05:50:52;4.90;;;3.22;;
24557;SDS011;12726;49.148;8.582;2023-06-19T05:53:37;4.85;;;3.10;;
24557;SDS011;12726;49.148;8.582;2023-06-19T05:56:23;4.38;;;3.42;;
24557;SDS011;12726;49.148;8.582;2023-06-19T05:59:09;3.38;;;3.08;;
24557;SDS011;12726;49.148;8.582;2023-06-19T06:01:54;4.15;;;3.50;;
24557;SDS011;12726;49.148;8.582;2023-06-19T06:04:41;5.07;;;3.60;;
24557;SDS011;12726;49.148;8.582;2023-06-19T06:07:27;5.28;;;3.22;;
24557;SDS011;12726;49.148;8.582;2023-06-19T06:10:12;6.78;;;4.13;;
24557;SDS011;12726;49.148;8.582;2023-06-19T06:12:57;3.88;;;3.47;;
24557;SDS011;12726;49.148;8.582;2023-06-19T06:15:43;3.85;;;3.35;;
24557;SDS011;12726;49.148;8.582;2023-06-19T06:18:28;3.72;;;3.38;;
24557;SDS011;12726;49.148;8.582;2023-06-19T06:21:15;5.75;;;3.72;;
24557;SDS011;12726;49.148;8.582;2023-06-19T06:24:00;5.18;;;3.72;;
24557;SDS011;12726;49.148;8.582;2023-06-19T06:26:46;3.78;;;3.10;;
24557;SDS011;12726;49.148;8.582;2023-06-19T06:29:32;3.75;;;3.10;;
24557;SDS011;12726;49.148;8.582;2023-06-19T06:32:17;3.65;;;3.17;;
24557;SDS011;12726;49.148;8.582;2023-06-19T06:35:03;4.18;;;3.20;;
24557;SDS011;12726;49.148;8.582;2023-06-19T06:37:50;3.88;;;3.45;;
24557;SDS011;12726;49.148;8.582;2023-06-19T06:40:35;3.30;;;3.00;;
24557;SDS011;12726;49.148;8.582;2023-06-19T06:43:21;5.82;;;2.78;;
24557;SDS011;12726;49.148;8.582;2023-06-19T06:46:06;3.13;;;2.80;;
24557;SDS011;12726;49.148;8.582;2023-06-19T06:48:51;3.67;;;2.80;;
24557;SDS011;12726;49.148;8.582;2023-06-19T06:51:37;3.38;;;2.97;;
24557;SDS011;12726;49.148;8.582;2023-06-19T06:54:23;4.78;;;2.50;;
24557;SDS011;12726;49.148;8.582;2023-06-19T06:57:08;3.63;;;2.60;;
24557;SDS011;12726;49.148;8.582;2023-06-19T06:59:54;2.88;;;2.58;;
24557;SDS011;12726;49.148;8.582;2023-06-19T07:02:39;3.72;;;2.88;;
24557;SDS011;12726;49.148;8.582;2023-06-19T07:05:25;4.00;;;2.70;;
24557;SDS011;12726;49.148;8.582;2023-06-19T07:08:10;3.88;;;2.58;;
24557;SDS011;12726;49.148;8.582;2023-06-19T07:10:57;2.90;;;2.60;;
24557;SDS011;12726;49.148;8.582;2023-06-19T07:13:42;4.07;;;2.90;;
24557;SDS011;12726;49.148;8.582;2023-06-19T07:16:28;3.10;;;2.78;;
24557;SDS011;12726;49.148;8.582;2023-06-19T07:19:13;3.38;;;2.65;;
24557;SDS011;12726;49.148;8.582;2023-06-19T07:21:58;3.78;;;2.90;;
24557;SDS011;12726;49.148;8.582;2023-06-19T07:24:44;6.68;;;3.60;;
24557;SDS011;12726;49.148;8.582;2023-06-19T07:27:31;2.97;;;2.55;;
24557;SDS011;12726;49.148;8.582;2023-06-19T07:30:16;3.65;;;2.80;;
24557;SDS011;12726;49.148;8.582;2023-06-19T07:33:01;5.57;;;2.83;;
24557;SDS011;12726;49.148;8.582;2023-06-19T07:35:47;3.47;;;3.03;;
24557;SDS011;12726;49.148;8.582;2023-06-19T07:38:32;7.38;;;2.90;;
24557;SDS011;12726;49.148;8.582;2023-06-19T07:41:17;3.42;;;3.13;;
24557;SDS011;12726;49.148;8.582;2023-06-19T07:44:04;4.13;;;2.83;;
24557;SDS011;12726;49.148;8.582;2023-06-19T07:46:49;4.32;;;2.90;;
24557;SDS011;12726;49.148;8.582;2023-06-19T07:49:35;4.80;;;3.33;;
24557;SDS011;12726;49.148;8.582;2023-06-19T07:52:20;4.97;;;2.83;;
24557;SDS011;12726;49.148;8.582;2023-06-19T07:55:06;4.97;;;3.15;;
24557;SDS011;12726;49.148;8.582;2023-06-19T07:57:51;4.55;;;3.08;;
24557;SDS011;12726;49.148;8.582;2023-06-19T08:00:42;4.18;;;2.90;;
24557;SDS011;12726;49.148;8.582;2023-06-19T08:03:27;4.95;;;3.10;;
24557;SDS011;12726;49.148;8.582;2023-06-19T08:06:12;4.95;;;3.80;;
24557;SDS011;12726;49.148;8.582;2023-06-19T08:08:57;4.15;;;3.35;;
24557;SDS011;12726;49.148;8.582;2023-06-19T08:11:43;3.72;;;3.30;;
24557;SDS011;12726;49.148;8.582;2023-06-19T08:14:28;5.20;;;3.80;;
24557;SDS011;12726;49.148;8.582;2023-06-19T08:17:15;5.65;;;3.70;;
24557;SDS011;12726;49.148;8.582;2023-06-19T08:20:00;4.28;;;3.75;;
24557;SDS011;12726;49.148;8.582;2023-06-19T08:22:49;4.18;;;3.60;;
24557;SDS011;12726;49.148;8.582;2023-06-19T08:25:34;5.88;;;4.00;;
24557;SDS011;12726;49.148;8.582;2023-06-19T08:28:19;5.97;;;3.90;;
24557;SDS011;12726;49.148;8.582;2023-06-19T08:31:05;6.00;;;4.28;;
24557;SDS011;12726;49.148;8.582;2023-06-19T08:33:51;4.47;;;3.75;;
24557;SDS011;12726;49.148;8.582;2023-06-19T08:36:37;5.55;;;4.38;;
24557;SDS011;12726;49.148;8.582;2023-06-19T08:39:22;5.10;;;4.55;;
24557;SDS011;12726;49.148;8.582;2023-06-19T08:42:08;5.90;;;4.33;;
24557;SDS011;12726;49.148;8.582;2023-06-19T08:44:53;5.93;;;4.40;;
24557;SDS011;12726;49.148;8.582;2023-06-19T08:47:39;4.25;;;3.85;;
24557;SDS011;12726;49.148;8.582;2023-06-19T08:50:26;4.43;;;3.80;;
24557;SDS011;12726;49.148;8.582;2023-06-19T08:53:11;3.70;;;3.25;;
24557;SDS011;12726;49.148;8.582;2023-06-19T08:55:56;3.92;;;3.50;;
24557;SDS011;12726;49.148;8.582;2023-06-19T08:58:42;3.88;;;3.47;;
24557;SDS011;12726;49.148;8.582;2023-06-19T09:01:28;6.15;;;3.72;;
24557;SDS011;12726;49.148;8.582;2023-06-19T09:04:13;3.88;;;3.45;;
24557;SDS011;12726;49.148;8.582;2023-06-19T09:07:00;9.63;;;4.32;;
24557;SDS011;12726;49.148;8.582;2023-06-19T09:09:46;4.55;;;4.10;;
24557;SDS011;12726;49.148;8.582;2023-06-19T09:12:32;4.82;;;4.00;;
24557;SDS011;12726;49.148;8.582;2023-06-19T09:15:17;5.03;;;4.53;;
24557;SDS011;12726;49.148;8.582;2023-06-19T09:18:03;5.43;;;4.90;;
24557;SDS011;12726;49.148;8.582;2023-06-19T09:20:51;4.70;;;4.25;;
24557;SDS011;12726;49.148;8.582;2023-06-19T09:23:40;5.95;;;4.43;;
24557;SDS011;12726;49.148;8.582;2023-06-19T09:26:25;4.95;;;4.45;;
24557;SDS011;12726;49.148;8.582;2023-06-19T09:29:11;5.00;;;4.07;;
24557;SDS011;12726;49.148;8.582;2023-06-19T09:31:57;4.57;;;4.18;;
24557;SDS011;12726;49.148;8.582;2023-06-19T09:34:43;6.60;;;4.45;;
24557;SDS011;12726;49.148;8.582;2023-06-19T09:37:29;5.30;;;4.32;;
24557;SDS011;12726;49.148;8.582;2023-06-19T09:40:16;5.00;;;4.35;;
24557;SDS011;12726;49.148;8.582;2023-06-19T09:43:01;4.85;;;3.90;;
24557;SDS011;12726;49.148;8.582;2023-06-19T09:45:49;5.50;;;4.10;;
24557;SDS011;12726;49.148;8.582;2023-06-19T09:48:40;5.95;;;4.18;;
24557;SDS011;12726;49.148;8.582;2023-06-19T09:51:29;3.47;;;3.08;;
24557;SDS011;12726;49.148;8.582;2023-06-19T09:54:15;4.05;;;3.33;;
24557;SDS011;12726;49.148;8.582;2023-06-19T09:57:04;3.90;;;3.50;;
24557;SDS011;12726;49.148;8.582;2023-06-19T09:59:53;3.83;;;3.50;;
24557;SDS011;12726;49.148;8.582;2023-06-19T10:02:40;3.55;;;3.15;;
24557;SDS011;12726;49.148;8.582;2023-06-19T10:05:30;4.80;;;3.63;;
24557;SDS011;12726;49.148;8.582;2023-06-19T10:08:25;4.65;;;3.38;;
24557;SDS011;12726;49.148;8.582;2023-06-19T10:11:12;5.32;;;3.97;;
24557;SDS011;12726;49.148;8.582;2023-06-19T10:14:05;4.60;;;3.47;;
24557;SDS011;12726;49.148;8.582;2023-06-19T10:16:51;4.13;;;3.70;;
24557;SDS011;12726;49.148;8.582;2023-06-19T10:19:36;7.15;;;4.15;;
24557;SDS011;12726;49.148;8.582;2023-06-19T10:22:21;5.00;;;4.50;;
24557;SDS011;12726;49.148;8.582;2023-06-19T10:25:07;4.22;;;3.75;;
24557;SDS011;12726;49.148;8.582;2023-06-19T10:27:52;4.53;;;4.00;;
24557;SDS011;12726;49.148;8.582;2023-06-19T10:30:39;5.63;;;4.18;;
24557;SDS011;12726;49.148;8.582;2023-06-19T10:33:25;5.80;;;4.38;;
24557;SDS011;12726;49.148;8.582;2023-06-19T10:36:15;4.50;;;4.10;;
24557;SDS011;12726;49.148;8.582;2023-06-19T10:39:01;4.40;;;3.83;;
24557;SDS011;12726;49.148;8.582;2023-06-19T10:41:46;4.53;;;4.13;;
24557;SDS011;12726;49.148;8.582;2023-06-19T10:44:32;5.43;;;3.80;;
24557;SDS011;12726;49.148;8.582;2023-06-19T10:47:18;7.10;;;4.35;;
24557;SDS011;12726;49.148;8.582;2023-06-19T10:50:04;5.20;;;4.07;;
24557;SDS011;12726;49.148;8.582;2023-06-19T10:52:53;6.65;;;4.60;;
24557;SDS011;12726;49.148;8.582;2023-06-19T10:55:46;6.05;;;4.32;;
24557;SDS011;12726;49.148;8.582;2023-06-19T10:58:32;4.97;;;4.47;;
24557;SDS011;12726;49.148;8.582;2023-06-19T11:01:17;5.97;;;4.78;;
24557;SDS011;12726;49.148;8.582;2023-06-19T11:04:05;4.20;;;3.90;;
24557;SDS011;12726;49.148;8.582;2023-06-19T11:06:52;4.95;;;4.43;;
24557;SDS011;12726;49.148;8.582;2023-06-19T11:09:37;4.78;;;4.10;;
24557;SDS011;12726;49.148;8.582;2023-06-19T11:12:22;6.50;;;3.88;;
24557;SDS011;12726;49.148;8.582;2023-06-19T11:15:08;6.00;;;4.35;;
24557;SDS011;12726;49.148;8.582;2023-06-19T11:17:55;4.65;;;4.13;;
24557;SDS011;12726;49.148;8.582;2023-06-19T11:20:45;4.30;;;3.90;;
24557;SDS011;12726;49.148;8.582;2023-06-19T11:23:31;4.97;;;4.45;;
24557;SDS011;12726;49.148;8.582;2023-06-19T11:26:17;5.82;;;4.18;;
24557;SDS011;12726;49.148;8.582;2023-06-19T11:29:12;4.82;;;4.32;;
24557;SDS011;12726;49.148;8.582;2023-06-19T11:32:05;6.63;;;4.20;;
24557;SDS011;12726;49.148;8.582;2023-06-19T11:37:42;5.55;;;3.92;;
24557;SDS011;12726;49.148;8.582;2023-06-19T11:40:28;6.57;;;3.88;;
24557;SDS011;12726;49.148;8.582;2023-06-19T11:43:23;5.30;;;4.18;;
24557;SDS011;12726;49.148;8.582;2023-06-19T11:46:09;5.28;;;4.05;;
24557;SDS011;12726;49.148;8.582;2023-06-19T11:48:54;7.07;;;4.38;;
24557;SDS011;12726;49.148;8.582;2023-06-19T11:51:40;5.13;;;4.40;;
24557;SDS011;12726;49.148;8.582;2023-06-19T11:54:27;5.03;;;4.43;;
24557;SDS011;12726;49.148;8.582;2023-06-19T11:57:12;6.97;;;4.10;;
24557;SDS011;12726;49.148;8.582;2023-06-19T11:59:58;5.95;;;4.00;;
24557;SDS011;12726;49.148;8.582;2023-06-19T12:02:44;5.60;;;3.97;;
24557;SDS011;12726;49.148;8.582;2023-06-19T12:05:31;8.23;;;3.75;;
24557;SDS011;12726;49.148;8.582;2023-06-19T12:08:17;3.88;;;3.58;;
24557;SDS011;12726;49.148;8.582;2023-06-19T12:11:04;4.95;;;3.58;;
24557;SDS011;12726;49.148;8.582;2023-06-19T12:13:51;4.35;;;3.67;;
24557;SDS011;12726;49.148;8.582;2023-06-19T12:16:39;4.57;;;3.80;;
24557;SDS011;12726;49.148;8.582;2023-06-19T12:19:25;5.15;;;3.72;;
24557;SDS011;12726;49.148;8.582;2023-06-19T12:22:11;6.93;;;3.75;;
24557;SDS011;12726;49.148;8.582;2023-06-19T12:24:56;4.45;;;3.60;;
24557;SDS011;12726;49.148;8.582;2023-06-19T12:27:43;4.38;;;3.80;;
24557;SDS011;12726;49.148;8.582;2023-06-19T12:30:28;5.22;;;3.90;;
24557;SDS011;12726;49.148;8.582;2023-06-19T12:33:13;4.22;;;3.83;;
24557;SDS011;12726;49.148;8.582;2023-06-19T12:35:59;4.25;;;3.85;;
24557;SDS011;12726;49.148;8.582;2023-06-19T12:38:45;3.78;;;3.42;;
24557;SDS011;12726;49.148;8.582;2023-06-19T12:41:31;4.88;;;3.88;;
24557;SDS011;12726;49.148;8.582;2023-06-19T12:44:18;4.55;;;3.60;;
24557;SDS011;12726;49.148;8.582;2023-06-19T12:47:03;4.35;;;3.90;;
24557;SDS011;12726;49.148;8.582;2023-06-19T12:49:49;3.92;;;3.53;;
24557;SDS011;12726;49.148;8.582;2023-06-19T12:52:34;3.88;;;3.47;;
24557;SDS011;12726;49.148;8.582;2023-06-19T12:55:20;5.28;;;3.53;;
24557;SDS011;12726;49.148;8.582;2023-06-19T12:58:05;6.95;;;3.85;;
24557;SDS011;12726;49.148;8.582;2023-06-19T13:00:53;4.25;;;3.85;;
24557;SDS011;12726;49.148;8.582;2023-06-19T13:03:38;4.35;;;3.70;;
24557;SDS011;12726;49.148;8.582;2023-06-19T13:06:23;3.97;;;3.58;;
24557;SDS011;12726;49.148;8.582;2023-06-19T13:09:09;5.97;;;3.85;;
24557;SDS011;12726;49.148;8.582;2023-06-19T13:11:54;4.70;;;3.55;;
24557;SDS011;12726;49.148;8.582;2023-06-19T13:14:40;5.55;;;4.05;;
24557;SDS011;12726;49.148;8.582;2023-06-19T13:17:26;4.28;;;3.78;;
24557;SDS011;12726;49.148;8.582;2023-06-19T13:20:12;3.83;;;3.53;;
24557;SDS011;12726;49.148;8.582;2023-06-19T13:22:57;5.13;;;3.85;;
24557;SDS011;12726;49.148;8.582;2023-06-19T13:25:43;3.38;;;3.08;;
24557;SDS011;12726;49.148;8.582;2023-06-19T13:28:28;4.82;;;3.40;;
24557;SDS011;12726;49.148;8.582;2023-06-19T13:31:14;3.33;;;3.03;;
24557;SDS011;12726;49.148;8.582;2023-06-19T13:34:00;4.25;;;3.35;;
24557;SDS011;12726;49.148;8.582;2023-06-19T13:36:45;3.45;;;3.15;;
24557;SDS011;12726;49.148;8.582;2023-06-19T13:39:31;4.55;;;3.28;;
24557;SDS011;12726;49.148;8.582;2023-06-19T13:42:16;3.88;;;3.58;;
24557;SDS011;12726;49.148;8.582;2023-06-19T13:45:02;3.42;;;3.13;;
24557;SDS011;12726;49.148;8.582;2023-06-19T13:47:48;4.53;;;3.60;;
24557;SDS011;12726;49.148;8.582;2023-06-19T13:50:34;3.47;;;3.17;;
24557;SDS011;12726;49.148;8.582;2023-06-19T13:53:20;3.85;;;3.55;;
24557;SDS011;12726;49.148;8.582;2023-06-19T13:56:05;5.78;;;3.50;;
24557;SDS011;12726;49.148;8.582;2023-06-19T13:58:51;3.72;;;3.42;;
24557;SDS011;12726;49.148;8.582;2023-06-19T14:01:38;4.00;;;3.40;;
24557;SDS011;12726;49.148;8.582;2023-06-19T14:04:25;4.07;;;3.67;;
24557;SDS011;12726;49.148;8.582;2023-06-19T14:07:11;3.92;;;3.60;;
24557;SDS011;12726;49.148;8.582;2023-06-19T14:09:57;4.05;;;3.50;;
24557;SDS011;12726;49.148;8.582;2023-06-19T14:12:42;3.67;;;3.38;;
24557;SDS011;12726;49.148;8.582;2023-06-19T14:15:28;3.80;;;3.38;;
24557;SDS011;12726;49.148;8.582;2023-06-19T14:18:13;4.70;;;3.63;;
24557;SDS011;12726;49.148;8.582;2023-06-19T14:20:58;4.68;;;3.15;;
24557;SDS011;12726;49.148;8.582;2023-06-19T14:23:45;3.80;;;3.50;;
24557;SDS011;12726;49.148;8.582;2023-06-19T14:26:30;3.88;;;3.53;;
24557;SDS011;12726;49.148;8.582;2023-06-19T14:29:16;4.03;;;3.55;;
24557;SDS011;12726;49.148;8.582;2023-06-19T14:32:03;3.65;;;3.30;;
24557;SDS011;12726;49.148;8.582;2023-06-19T14:34:48;5.60;;;3.78;;
24557;SDS011;12726;49.148;8.582;2023-06-19T14:37:34;4.13;;;3.80;;
24557;SDS011;12726;49.148;8.582;2023-06-19T14:40:20;3.90;;;3.58;;
24557;SDS011;12726;49.148;8.582;2023-06-19T14:43:06;3.92;;;3.53;;
24557;SDS011;12726;49.148;8.582;2023-06-19T14:45:52;4.07;;;3.42;;
24557;SDS011;12726;49.148;8.582;2023-06-19T14:48:38;3.65;;;3.35;;
24557;SDS011;12726;49.148;8.582;2023-06-19T14:51:23;3.70;;;3.25;;
24557;SDS011;12726;49.148;8.582;2023-06-19T14:54:08;4.30;;;3.75;;
24557;SDS011;12726;49.148;8.582;2023-06-19T14:56:55;3.72;;;3.22;;
24557;SDS011;12726;49.148;8.582;2023-06-19T14:59:40;4.40;;;3.60;;
24557;SDS011;12726;49.148;8.582;2023-06-19T15:02:25;4.13;;;3.05;;
24557;SDS011;12726;49.148;8.582;2023-06-19T15:05:11;5.50;;;3.40;;
24557;SDS011;12726;49.148;8.582;2023-06-19T15:07:56;5.22;;;3.85;;
24557;SDS011;12726;49.148;8.582;2023-06-19T15:10:42;5.55;;;3.50;;
24557;SDS011;12726;49.148;8.582;2023-06-19T15:13:29;5.63;;;3.60;;
24557;SDS011;12726;49.148;8.582;2023-06-19T15:16:14;3.72;;;3.28;;
24557;SDS011;12726;49.148;8.582;2023-06-19T15:19:00;5.40;;;3.65;;
24557;SDS011;12726;49.148;8.582;2023-06-19T15:21:45;5.32;;;3.80;;
24557;SDS011;12726;49.148;8.582;2023-06-19T15:24:30;4.35;;;3.40;;
24557;SDS011;12726;49.148;8.582;2023-06-19T15:27:16;4.22;;;3.70;;
24557;SDS011;12726;49.148;8.582;2023-06-19T15:30:03;4.38;;;3.72;;
24557;SDS011;12726;49.148;8.582;2023-06-19T15:32:49;5.93;;;3.65;;
24557;SDS011;12726;49.148;8.582;2023-06-19T15:35:36;4.55;;;3.95;;
24557;SDS011;12726;49.148;8.582;2023-06-19T15:38:23;10.05;;;4.13;;
24557;SDS011;12726;49.148;8.582;2023-06-19T15:41:09;4.72;;;3.95;;
24557;SDS011;12726;49.148;8.582;2023-06-19T15:43:54;5.38;;;3.40;;
24557;SDS011;12726;49.148;8.582;2023-06-19T15:46:41;5.10;;;3.85;;
24557;SDS011;12726;49.148;8.582;2023-06-19T15:49:26;6.72;;;3.80;;
24557;SDS011;12726;49.148;8.582;2023-06-19T15:52:12;5.55;;;3.35;;
24557;SDS011;12726;49.148;8.582;2023-06-19T15:54:57;4.28;;;3.30;;
24557;SDS011;12726;49.148;8.582;2023-06-19T15:57:42;3.58;;;3.28;;
24557;SDS011;12726;49.148;8.582;2023-06-19T16:00:28;3.97;;;3.50;;
24557;SDS011;12726;49.148;8.582;2023-06-19T16:03:14;6.35;;;3.47;;
24557;SDS011;12726;49.148;8.582;2023-06-19T16:05:59;4.57;;;3.58;;
24557;SDS011;12726;49.148;8.582;2023-06-19T16:08:45;5.50;;;4.10;;
24557;SDS011;12726;49.148;8.582;2023-06-19T16:11:30;6.53;;;3.38;;
24557;SDS011;12726;49.148;8.582;2023-06-19T16:14:16;4.47;;;3.67;;
24557;SDS011;12726;49.148;8.582;2023-06-19T16:17:02;3.95;;;3.55;;
24557;SDS011;12726;49.148;8.582;2023-06-19T16:19:49;4.13;;;3.70;;
24557;SDS011;12726;49.148;8.582;2023-06-19T16:22:34;4.30;;;3.50;;
24557;SDS011;12726;49.148;8.582;2023-06-19T16:25:20;3.80;;;3.20;;
24557;SDS011;12726;49.148;8.582;2023-06-19T16:28:06;3.38;;;2.97;;
24557;SDS011;12726;49.148;8.582;2023-06-19T16:30:51;3.95;;;3.58;;
24557;SDS011;12726;49.148;8.582;2023-06-19T16:33:37;4.22;;;3.92;;
24557;SDS011;12726;49.148;8.582;2023-06-19T16:36:24;4.07;;;3.55;;
24557;SDS011;12726;49.148;8.582;2023-06-19T16:39:09;4.50;;;3.67;;
24557;SDS011;12726;49.148;8.582;2023-06-19T16:41:58;4.07;;;3.67;;
24557;SDS011;12726;49.148;8.582;2023-06-19T16:44:43;5.35;;;3.63;;